Overview Statistics Trail Chart Weather Telemetry Raw packets
 

This is the latest recevied weather packets stored in our database for station/object N6ZHV-13. If no packets are shown the sender has not sent any weather packets the latest 10 day(s).

<< 110 111 112 113 114 115 116 >>
Time Temp. Humidity Pressure Rain* Wind** Luminosity Snow
1787863034 31.11° C 55% 1007.7 hPa 0 mm - - -
1787862734 31.11° C 55% 1007.8 hPa 0 mm - - -
1787862434 30.56° C 57% 1007.8 hPa 0 mm - - -
1787862134 30.56° C 57% 1007.8 hPa 0 mm - - -
1787861834 30.56° C 58% 1007.8 hPa 0 mm - - -
1787861541 30° C 60% 1007.8 hPa 0 mm - - -
1787861234 29.44° C 61% 1007.9 hPa 0 mm - - -
1787860934 29.44° C 62% 1008.1 hPa 0 mm - - -
1787860634 29.44° C 63% 1008.1 hPa 0 mm - - -
1787860334 28.89° C 62% 1008.1 hPa 0 mm - - -
1787860034 29.44° C 62% 1008.1 hPa 0 mm - - -
1787859734 29.44° C 61% 1008.3 hPa 0 mm - - -
1787859434 29.44° C 61% 1008.3 hPa 0 mm - - -
1787859134 29.44° C 63% 1008.3 hPa 0 mm - - -
1787858834 29.44° C 63% 1008.3 hPa 0 mm - - -
1787858591 28.89° C 64% 1008.4 hPa 0 mm - - -
1787858534 28.89° C 64% 1008.4 hPa 0 mm - - -
1787858234 28.89° C 65% 1008.5 hPa 0 mm - - -
1787857934 30° C 61% 1008.5 hPa 0 mm - - -
1787857634 30° C 60% 1008.4 hPa 0 mm - - -
1787857334 30.56° C 55% 1008.4 hPa 0 mm - - -
1787857034 30.56° C 55% 1008.4 hPa 0 mm - - -
1787856734 30.56° C 53% 1008.5 hPa 0 mm - - -
1787856434 31.11° C 51% 1008.4 hPa 0 mm - - -
1787856134 30.56° C 52% 1008.4 hPa 0 mm - - -

* Rain latest hour (hover to see other rain measurements)
** Current wind speed in m/s (hover to see current wind gust speed)